CheckWX is a tool to help pilots better visualize weather data.  It is not intended as a substitute for an official pre-flight weather briefing.

05:28:40 UTC

KOUN METAR
University of Oklahoma Westheimer Airport
Norman, Oklahoma, USA
Current

34 mins ago

KOUN 200455Z AUTO 00000KT 1/2SM FG OVC003 00/M01 A2989 RMK AO2 T10021008
Observed
Feb-20 @ 04:55 UTC
Visibility
805 meters
Flight Rules
LIFR
Conditions
Fog
Cloud Levels
  • Overcast at 300' AGL
Temperature
-0°C / 32°F
Dewpoint
-1°C / 30°F
Humidity
93%
Altimeter
29.89" Hg
Pressure
1012.22 hPa
Previous

54 mins ago

KOUN 200435Z AUTO 00000KT 1/2SM FZFG OVC003 00/M01 A2991 RMK AO2 T10031008
Observed
Feb-20 @ 04:35 UTC
Visibility
805 meters
Flight Rules
LIFR
Conditions
Freezing Fog
Cloud Levels
  • Overcast at 300' AGL
Temperature
-0°C / 32°F
Dewpoint
-1°C / 30°F
Humidity
93%
Altimeter
29.91" Hg
Pressure
1012.92 hPa
Previous

1 hour ago

KOUN 200415Z AUTO 05003KT 1/2SM FZFG OVC005 00/M01 A2990 RMK AO2 T10031009
Observed
Feb-20 @ 04:15 UTC
Wind
  • 050° at 3 KTS
Visibility
805 meters
Flight Rules
LIFR
Conditions
Freezing Fog
Cloud Levels
  • Overcast at 500' AGL
Temperature
-0°C / 32°F
Dewpoint
-1°C / 30°F
Humidity
93%
Altimeter
29.9" Hg
Pressure
1012.52 hPa